メインページ
METAR-TAF:

METAR-TAF

空港 :

コルカタ, インド

ネータージー・スバース・チャンドラ・ボース国際空港

緯度: 22-39N, 経度: 088-27E, 海抜: 4m

現時点の気象観測

当レポートは15分前の01:00(UTC)に作成
南/南東の風 4kt
気温 30°C
湿度 70%
気圧 1005 hPa
視程: 3200m
高度1800ftの雲は散在している
高度10000ftの千切れ雲あり
煙霧

METAR: VECC 230100Z 16004KT 3200 HZ SCT018 BKN100 30/24 Q1005 NOSIG

時間: 06:45 (01:15 UTC)

予報

当レポートは2時間15分前の23:00(UTC)に作成
予報は23日の 00時(UTC)から 24日の 06時(UTC)まで有効
南西の風 8kt
視程: 3200m
高度2000ftの雲はほとんどない
煙霧
23日の 03時(UTC)から 23日の 05時(UTC)まで徐々に
の風 8kt
23日の 12時(UTC)から 23日の 16時(UTC)まで一時的に
西の風 12kt
視程: 1500m
高度1500ftの雲は散在している
高度2500ftの雲はほとんどない, 積乱雲.
高度9000ftの千切れ雲あり
激しい雷雨, 雨

TAF: VECC 222300Z 2300/2406 22008KT 3200 HZ FEW020 BECMG 2303/2305 18008KT TEMPO 2312/2316 27012KT 1500 TSRA SCT015 FEW025CB BKN090

4,000以上の空港の気象観測と天気予報(METAR報とTAF報)

利用可能な観測所は地図上に黄色い丸と赤い丸で示す。

丸の上にカーソルを重ねると観測所名を参照できる。

次にクリックすると気象観測と天気予報を参照できる。

マップの切り替え:黒色「×」印の緑ボタンをクリックして拡大、「-」印の緑ボタンをクリックして縮小、緑色の三角印をクリックして隣りの地図に切り替え


METAR-TAF: